Time;durP1;ratioP1;P1;durP2;ratioP2;P2;SDS_P1;SDS_P2;PMS_P1;PMS_P2;Temp;Humidity;BMP_temperature;BMP_pressure;BME280_temperature;BME280_humidity;BME280_pressure;Samples;Min_cycle;Max_cycle;Signal;HPM_P1;HPM_P2
2022/04/15 00:00:45;;;;;;;8.10;6.78;;;;;;;10.75;75.86;101372.03;5012587;28;20080;-67
2022/04/15 00:03:50;;;;;;;11.88;7.03;;;;;;;10.60;76.22;101380.50;5012739;28;20044;-67
2022/04/15 00:06:53;;;;;;;10.40;7.13;;;;;;;10.54;76.87;101378.13;5012578;28;20092;-67
2022/04/15 00:09:57;;;;;;;8.00;7.15;;;;;;;10.40;77.25;101382.13;5012419;28;20112;-67
2022/04/15 00:13:02;;;;;;;9.93;7.93;;;;;;;10.31;77.48;101382.47;5012475;28;20100;-67
2022/04/15 00:16:06;;;;;;;11.55;7.03;;;;;;;10.19;77.67;101382.88;5012874;28;20049;-67
2022/04/15 00:19:11;;;;;;;11.88;7.32;;;;;;;10.13;77.94;101385.72;5012448;28;20128;-67
2022/04/15 00:22:14;;;;;;;9.70;7.20;;;;;;;10.35;76.89;101383.22;5012395;28;20122;-67
2022/04/15 00:25:18;;;;;;;10.80;6.43;;;;;;;10.52;75.80;101372.94;5012531;28;20048;-67
2022/04/15 00:28:22;;;;;;;15.93;8.25;;;;;;;10.39;75.54;101376.94;5012293;28;20091;-67
2022/04/15 00:31:25;;;;;;;11.77;7.30;;;;;;;10.16;76.61;101375.16;5022920;28;20108;-67
2022/04/15 00:34:28;;;;;;;13.35;7.20;;;;;;;9.95;77.51;101385.47;5012257;28;20048;-67
2022/04/15 00:37:32;;;;;;;10.02;7.07;;;;;;;9.97;77.23;101388.88;5012204;28;20112;-67
2022/04/15 00:40:36;;;;;;;9.95;7.97;;;;;;;9.74;77.65;101388.88;5012134;28;20177;-67
2022/04/15 00:43:40;;;;;;;9.68;7.18;;;;;;;9.73;77.79;101384.53;5012435;28;20115;-67
2022/04/15 00:46:44;;;;;;;12.02;6.80;;;;;;;9.77;77.20;101383.53;5012258;28;20044;-67
2022/04/15 00:49:47;;;;;;;9.35;6.70;;;;;;;9.67;77.85;101384.78;5012152;28;20153;-67
2022/04/15 00:52:51;;;;;;;;;;;;;;;9.51;78.59;101390.50;5012577;28;20053;-67
2022/04/15 00:55:57;;;;;;;13.30;8.30;;;;;;;9.48;78.87;101390.63;5011959;28;19940;-67
2022/04/15 00:59:04;;;;;;;13.50;7.65;;;;;;;9.46;78.88;101386.34;5015017;28;20040;-67
2022/04/15 01:02:08;;;;;;;11.35;8.02;;;;;;;9.38;78.85;101389.22;5016095;28;20394;-67
2022/04/15 01:05:13;;;;;;;9.75;7.30;;;;;;;9.44;78.30;101388.16;5015821;28;20690;-67
2022/04/15 01:08:21;;;;;;;12.77;8.68;;;;;;;9.35;78.72;101389.31;5015666;28;20123;-67
2022/04/15 01:11:27;;;;;;;11.50;7.53;;;;;;;9.29;78.36;101389.53;5015473;28;20057;-67
2022/04/15 01:14:32;;;;;;;9.57;6.68;;;;;;;9.28;78.61;101387.81;5015431;28;20049;-67
2022/04/15 01:17:36;;;;;;;11.25;7.32;;;;;;;9.31;78.29;101392.91;5015547;28;20061;-67
2022/04/15 01:20:42;;;;;;;9.57;7.05;;;;;;;9.37;77.90;101392.72;5015301;28;20044;-67
2022/04/15 01:23:47;;;;;;;7.90;7.10;;;;;;;9.33;78.11;101385.91;5015261;28;20441;-67
2022/04/15 01:26:50;;;;;;;12.68;8.00;;;;;;;9.23;78.01;101390.56;5015113;28;20048;-67
2022/04/15 01:29:54;;;;;;;12.13;7.53;;;;;;;9.16;78.71;101389.06;5015285;28;20045;-67
2022/04/15 01:32:57;;;;;;;;;;;;;;;9.17;78.49;101387.31;5015701;28;20511;-67
2022/04/15 01:36:00;;;;;;;11.07;7.93;;;;;;;9.15;78.44;101396.94;5015082;28;19927;-67
2022/04/15 01:39:04;;;;;;;9.77;7.65;;;;;;;9.12;78.37;101399.66;5014862;28;20049;-67
2022/04/15 01:42:11;;;;;;;11.18;7.75;;;;;;;9.06;78.28;101406.78;5015038;28;20080;-67
2022/04/15 01:45:14;;;;;;;10.40;7.85;;;;;;;8.94;78.96;101406.31;5014979;28;20041;-67
2022/04/15 01:48:17;;;;;;;;;;;;;;;8.87;78.75;101418.69;5014533;28;20041;-67
2022/04/15 01:51:21;;;;;;;14.57;7.78;;;;;;;8.83;78.88;101412.69;5014927;28;19967;-67
2022/04/15 01:54:27;;;;;;;9.15;8.00;;;;;;;8.82;79.16;101413.59;5014546;28;20104;-67
2022/04/15 01:57:31;;;;;;;11.80;7.38;;;;;;;8.91;78.42;101409.88;5014765;28;20045;-66
2022/04/15 02:00:34;;;;;;;;;;;;;;;9.20;77.66;101415.91;5007397;28;20526;-67
2022/04/15 02:03:37;;;;;;;10.52;7.57;;;;;;;9.07;77.39;101421.53;5026622;28;19939;-67
2022/04/15 02:06:41;;;;;;;13.90;8.60;;;;;;;8.91;78.56;101415.09;4669443;28;10000606;-67
2022/04/15 02:09:44;;;;;;;13.75;8.60;;;;;;;8.79;79.09;101415.47;5029616;28;20146;-67
2022/04/15 02:12:47;;;;;;;;;;;;;;;8.74;78.90;101414.72;5029314;28;20056;-67
2022/04/15 02:15:51;;;;;;;11.18;7.65;;;;;;;8.87;78.30;101418.69;5045735;28;19945;-67
2022/04/15 02:18:54;;;;;;;;;;;;;;;8.81;78.48;101418.88;5044739;28;20420;-67
2022/04/15 02:21:57;;;;;;;11.17;7.77;;;;;;;8.73;78.89;101426.06;5030104;28;19924;-67
2022/04/15 02:25:00;;;;;;;8.73;7.03;;;;;;;8.89;78.32;101427.31;5040583;28;20639;-66
2022/04/15 02:28:04;;;;;;;11.32;6.95;;;;;;;8.79;78.52;101428.50;5029685;28;20114;-66
2022/04/15 02:31:08;;;;;;;8.82;7.13;;;;;;;8.91;78.62;101430.75;5030097;28;20262;-67
2022/04/15 02:34:11;;;;;;;9.80;7.65;;;;;;;8.96;78.51;101436.66;5029887;28;20048;-67
2022/04/15 02:37:14;;;;;;;27.45;16.98;;;;;;;8.91;78.39;101435.94;5030067;28;20143;-67
2022/04/15 02:40:18;;;;;;;14.25;11.35;;;;;;;8.87;78.77;101439.56;5029497;28;20479;-67
2022/04/15 02:43:25;;;;;;;15.73;8.80;;;;;;;8.85;79.25;101436.13;5029778;28;20129;-67
2022/04/15 02:46:28;;;;;;;11.75;7.80;;;;;;;8.80;79.39;101443.22;5029733;28;20048;-67
2022/04/15 02:49:32;;;;;;;9.63;6.93;;;;;;;8.87;79.35;101433.47;5029591;28;20057;-67
2022/04/15 02:52:35;;;;;;;11.50;8.02;;;;;;;8.91;78.50;101441.16;5029260;28;20056;-67
2022/04/15 02:55:39;;;;;;;12.35;8.15;;;;;;;8.80;78.90;101438.03;5029704;28;20457;-67
2022/04/15 02:58:42;;;;;;;9.00;7.30;;;;;;;8.91;78.31;101451.59;5029868;28;20049;-67
2022/04/15 03:01:46;;;;;;;11.05;7.55;;;;;;;8.90;78.27;101444.66;5029345;28;20463;-67
2022/04/15 03:04:49;;;;;;;11.90;7.65;;;;;;;8.71;78.59;101448.72;5033924;28;20557;-67
2022/04/15 03:07:52;;;;;;;8.90;6.60;;;;;;;8.65;78.99;101448.91;5049251;28;20287;-67
2022/04/15 03:10:57;;;;;;;;;;;;;;;8.56;79.13;101450.91;5049332;28;20076;-67
2022/04/15 03:14:00;;;;;;;8.95;7.35;;;;;;;8.59;79.12;101449.97;5049145;28;20382;-67
2022/04/15 03:17:05;;;;;;;;;;;;;;;8.61;79.45;101453.34;5024992;28;20091;-67
2022/04/15 03:20:09;;;;;;;11.95;7.45;;;;;;;8.76;78.40;101454.66;5025311;28;19924;-66
2022/04/15 03:23:13;;;;;;;10.82;7.88;;;;;;;8.68;78.48;101456.63;5028736;28;20550;-67
2022/04/15 03:26:17;;;;;;;12.98;7.75;;;;;;;8.47;79.79;101458.97;5028308;28;20119;-67
2022/04/15 03:29:20;;;;;;;10.95;8.23;;;;;;;8.47;79.48;101455.53;5028697;28;20050;-66
2022/04/15 03:32:24;;;;;;;10.60;8.32;;;;;;;8.39;79.84;101466.16;5027762;28;20068;-67
2022/04/15 03:35:28;;;;;;;10.10;8.02;;;;;;;8.37;79.67;101467.94;5028151;28;20102;-67
2022/04/15 03:38:32;;;;;;;12.07;8.07;;;;;;;8.34;79.84;101468.00;5028744;28;20200;-67
2022/04/15 03:41:35;;;;;;;10.88;7.88;;;;;;;8.35;79.68;101467.09;5027934;28;20052;-66
2022/04/15 03:44:39;;;;;;;10.20;8.40;;;;;;;8.37;79.75;101467.94;5028489;28;20098;-67
2022/04/15 03:47:43;;;;;;;12.20;7.82;;;;;;;8.38;79.88;101467.91;5027970;28;20044;-67
2022/04/15 03:50:47;;;;;;;13.45;8.18;;;;;;;8.42;79.78;101463.44;5028556;28;20057;-66
2022/04/15 03:53:51;;;;;;;13.07;9.55;;;;;;;8.53;79.30;101469.22;5028516;28;20114;-67
2022/04/15 03:56:55;;;;;;;11.07;8.82;;;;;;;8.36;80.00;101469.69;5028503;28;20048;-67
2022/04/15 03:59:58;;;;;;;9.70;8.70;;;;;;;8.38;79.99;101467.06;5028529;28;20140;-67
2022/04/15 04:03:02;;;;;;;18.67;9.55;;;;;;;8.46;80.11;101474.69;5028388;28;20107;-67
2022/04/15 04:06:07;;;;;;;9.50;8.50;;;;;;;8.34;79.90;101476.69;5044511;28;20171;-66
2022/04/15 04:09:11;;;;;;;11.13;8.77;;;;;;;8.27;80.18;101480.34;5048177;28;20063;-67
2022/04/15 04:12:15;;;;;;;12.90;9.05;;;;;;;8.30;80.13;101474.22;5048467;28;20059;-67
2022/04/15 04:15:19;;;;;;;11.68;8.13;;;;;;;8.32;79.74;101472.41;5010665;28;20108;-67
2022/04/15 04:18:23;;;;;;;9.70;8.60;;;;;;;8.28;80.27;101474.25;5045682;28;20059;-67
2022/04/15 04:21:26;;;;;;;;;;;;;;;8.14;80.24;101464.22;5048205;28;20052;-67
2022/04/15 04:24:30;;;;;;;9.93;8.45;;;;;;;8.13;80.13;101470.28;5048246;28;20035;-67
2022/04/15 04:27:35;;;;;;;10.95;9.20;;;;;;;8.09;80.03;101475.63;5048411;28;20123;-67
2022/04/15 04:30:40;;;;;;;14.90;8.98;;;;;;;8.05;79.95;101477.47;5035787;28;20051;-67
2022/04/15 04:33:43;;;;;;;12.23;9.90;;;;;;;8.08;80.13;101479.16;5051065;28;20052;-67
2022/04/15 04:36:46;;;;;;;12.45;9.13;;;;;;;8.09;80.08;101486.91;5052152;28;20110;-67
2022/04/15 04:39:50;;;;;;;13.20;9.55;;;;;;;8.03;80.16;101481.84;5051025;28;20099;-67
2022/04/15 04:42:54;;;;;;;16.38;10.13;;;;;;;8.02;79.94;101502.75;5029945;28;20810;-66
2022/04/15 04:45:57;;;;;;;10.85;9.25;;;;;;;8.15;79.34;101497.16;5013939;28;20137;-67
2022/04/15 04:49:02;;;;;;;12.35;10.13;;;;;;;8.19;78.67;101499.69;5026223;28;20121;-67
2022/04/15 04:52:06;;;;;;;11.48;10.27;;;;;;;8.13;78.99;101505.91;5026120;28;20048;-67
2022/04/15 04:55:09;;;;;;;12.60;9.30;;;;;;;8.10;79.38;101506.00;5026050;28;20053;-67
2022/04/15 04:58:13;;;;;;;10.98;9.93;;;;;;;8.21;78.84;101505.72;5028284;28;20080;-67
2022/04/15 05:01:16;;;;;;;11.70;9.32;;;;;;;8.00;79.18;101507.13;5015541;28;20103;-67
2022/04/15 05:04:20;;;;;;;;;;;;;;;8.10;78.63;101519.91;5028471;28;20049;-67
2022/04/15 05:07:23;;;;;;;10.00;8.75;;;;;;;8.12;78.61;101515.47;5046438;28;19958;-67
2022/04/15 05:10:27;;;;;;;13.02;8.75;;;;;;;8.30;77.92;101521.13;5006604;28;20419;-67
2022/04/15 05:13:30;;;;;;;11.40;8.40;;;;;;;8.23;78.25;101516.94;5007691;28;20052;-67
2022/04/15 05:16:33;;;;;;;10.27;9.07;;;;;;;8.09;78.83;101525.13;5012801;28;20467;-67
2022/04/15 05:19:37;;;;;;;10.38;9.18;;;;;;;8.08;79.00;101526.88;5042489;28;20089;-66
2022/04/15 05:22:41;;;;;;;11.80;9.32;;;;;;;8.06;79.24;101528.66;5034516;28;20075;-67
2022/04/15 05:25:44;;;;;;;;;;;;;;;7.96;79.83;101535.00;5027271;28;20052;-67
2022/04/15 05:28:47;;;;;;;10.87;9.30;;;;;;;8.19;79.11;101537.00;5026679;28;19955;-67
2022/04/15 05:31:52;;;;;;;;;;;;;;;8.05;79.57;101537.38;5027054;28;20783;-67
2022/04/15 05:34:56;;;;;;;14.50;9.10;;;;;;;8.10;79.72;101540.75;5025972;28;20016;-67
2022/04/15 05:37:59;;;;;;;;;;;;;;;8.04;80.35;101542.63;5026927;28;20052;-67
2022/04/15 05:41:02;;;;;;;11.10;8.75;;;;;;;7.98;80.71;101546.25;5025214;28;20263;-66
2022/04/15 05:44:08;;;;;;;;;;;;;;;8.00;80.69;101549.66;5026122;28;20072;-67
2022/04/15 05:47:13;;;;;;;11.50;9.98;;;;;;;8.04;80.88;101553.03;5025573;28;20001;-67
2022/04/15 05:50:18;;;;;;;10.70;9.63;;;;;;;8.03;81.20;101553.94;5026993;28;20064;-67
2022/04/15 05:53:22;;;;;;;12.02;10.15;;;;;;;8.02;81.36;101558.28;5017490;28;20091;-67
2022/04/15 05:56:25;;;;;;;11.02;8.80;;;;;;;8.21;80.60;101563.03;4321545;28;10000819;-67
2022/04/15 05:59:28;;;;;;;;;;;;;;;8.26;80.46;101561.16;5006344;28;20049;-67
2022/04/15 06:02:32;;;;;;;13.13;10.55;;;;;;;8.44;80.14;101559.88;5023407;28;20024;-67
2022/04/15 06:05:35;;;;;;;;;;;;;;;8.44;80.54;101565.06;5029961;28;20111;-66
2022/04/15 06:08:38;;;;;;;14.05;11.23;;;;;;;8.69;79.68;101568.72;5029097;28;20339;-67
2022/04/15 06:11:42;;;;;;;15.10;11.85;;;;;;;8.57;80.38;101566.44;5030024;28;20139;-67
2022/04/15 06:14:46;;;;;;;13.15;11.75;;;;;;;8.83;79.55;101569.19;5027277;28;20559;-67
2022/04/15 06:17:50;;;;;;;12.68;11.23;;;;;;;8.97;79.03;101573.16;5027976;28;20088;-67
2022/04/15 06:20:53;;;;;;;15.88;12.40;;;;;;;8.88;79.89;101569.06;5033673;28;20095;-67
2022/04/15 06:23:57;;;;;;;16.05;11.45;;;;;;;9.00;79.23;101571.31;5028976;28;20651;-67
2022/04/15 06:27:03;;;;;;;14.40;11.48;;;;;;;9.11;79.18;101572.75;5024112;28;20448;-69
2022/04/15 06:30:08;;;;;;;13.02;11.60;;;;;;;9.31;78.45;101575.63;5027868;28;20036;-69
2022/04/15 06:33:15;;;;;;;12.77;10.60;;;;;;;9.29;78.86;101573.06;5028578;28;20047;-69
2022/04/15 06:36:20;;;;;;;15.30;12.02;;;;;;;9.41;78.31;101577.06;5015354;28;20549;-69
2022/04/15 06:39:25;;;;;;;11.95;10.63;;;;;;;9.53;78.30;101576.66;5027733;28;20064;-69
2022/04/15 06:42:32;;;;;;;12.60;11.40;;;;;;;9.60;78.11;101576.47;5027868;28;20167;-69
2022/04/15 06:45:37;;;;;;;15.02;12.20;;;;;;;9.64;77.88;101578.13;5027988;28;20526;-69
2022/04/15 06:48:41;;;;;;;17.17;13.07;;;;;;;9.73;77.58;101577.78;5029297;28;20099;-69
2022/04/15 06:51:45;;;;;;;14.52;12.73;;;;;;;9.89;77.17;101584.25;5028942;28;20480;-69
2022/04/15 06:54:49;;;;;;;17.60;13.82;;;;;;;9.87;78.01;101578.22;5026579;28;20526;-67
2022/04/15 06:57:52;;;;;;;101.15;23.90;;;;;;;10.05;78.05;101586.34;5028318;28;20052;-67
2022/04/15 07:00:56;;;;;;;19.33;13.55;;;;;;;10.09;77.93;101583.59;5026078;28;20056;-67
2022/04/15 07:04:00;;;;;;;17.67;15.00;;;;;;;9.94;79.11;101582.31;5029110;28;20040;-67
2022/04/15 07:07:06;;;;;;;16.98;15.20;;;;;;;10.10;78.48;101592.28;5028975;28;20102;-67
2022/04/15 07:10:11;;;;;;;17.92;15.15;;;;;;;10.30;77.62;101584.66;5028272;28;20079;-67
2022/04/15 07:13:14;;;;;;;16.33;14.60;;;;;;;10.38;77.82;101582.63;5028066;28;20048;-67
2022/04/15 07:16:19;;;;;;;19.00;16.00;;;;;;;10.54;78.31;101582.09;5027869;28;20132;-67
2022/04/15 07:19:23;;;;;;;15.98;13.90;;;;;;;10.72;77.16;101586.69;5028220;28;20183;-67
2022/04/15 07:22:26;;;;;;;15.40;13.70;;;;;;;10.85;76.69;101574.88;5027002;28;20405;-67
2022/04/15 07:25:29;;;;;;;;;;;;;;;10.98;76.66;101587.50;5029003;28;20118;-67
2022/04/15 07:28:33;;;;;;;17.05;14.45;;;;;;;11.10;76.34;101587.03;5028322;28;20469;-67
2022/04/15 07:31:40;;;;;;;21.77;15.85;;;;;;;11.19;76.01;101581.44;5027469;28;20119;-67
2022/04/15 07:34:44;;;;;;;17.67;13.98;;;;;;;11.28;76.13;101578.47;5026575;28;20075;-67
2022/04/15 07:37:47;;;;;;;16.40;14.70;;;;;;;11.29;77.11;101577.56;5029373;28;20055;-67
2022/04/15 07:40:51;;;;;;;18.05;15.18;;;;;;;11.49;76.26;101582.03;5030427;28;20111;-67
2022/04/15 07:43:54;;;;;;;19.65;14.30;;;;;;;11.63;75.70;101582.34;5030417;28;20048;-67
2022/04/15 07:47:01;;;;;;;16.75;15.02;;;;;;;11.73;75.84;101582.81;5030741;28;20448;-67
2022/04/15 07:50:06;;;;;;;17.42;15.38;;;;;;;11.89;75.15;101574.38;5030478;28;20611;-67
2022/04/15 07:53:09;;;;;;;17.00;12.73;;;;;;;11.97;74.17;101569.69;5029882;28;20121;-67
2022/04/15 07:56:13;;;;;;;;;;;;;;;12.19;69.48;101570.50;5031352;28;20555;-67
2022/04/15 07:59:18;;;;;;;12.82;9.20;;;;;;;12.47;70.53;101574.53;5032185;28;19920;-67
2022/04/15 08:02:21;;;;;;;8.65;5.60;;;;;;;12.88;66.22;101569.22;5032223;28;20072;-67
2022/04/15 08:05:28;;;;;;;7.53;4.38;;;;;;;12.96;64.95;101578.47;5032386;28;20096;-67
2022/04/15 08:08:31;;;;;;;6.88;3.40;;;;;;;13.09;63.16;101576.13;5032911;28;20440;-67
2022/04/15 08:11:35;;;;;;;8.07;3.78;;;;;;;13.10;62.37;101572.56;4993655;28;20057;-67
2022/04/15 08:14:38;;;;;;;8.10;4.00;;;;;;;13.27;62.98;101577.06;4991447;28;20064;-67
2022/04/15 08:17:42;;;;;;;6.78;3.42;;;;;;;13.25;63.08;101582.41;4992740;28;20497;-67
2022/04/15 08:20:46;;;;;;;7.68;3.53;;;;;;;13.43;61.61;101580.72;4992693;28;20465;-67
2022/04/15 08:23:50;;;;;;;6.82;2.70;;;;;;;13.37;59.13;101591.50;4992591;28;20108;-67
2022/04/15 08:26:56;;;;;;;7.80;2.45;;;;;;;13.43;60.59;101587.72;4992663;28;20049;-67
2022/04/15 08:29:59;;;;;;;6.22;2.92;;;;;;;13.46;59.92;101582.31;4992985;28;20116;-67
2022/04/15 08:33:07;;;;;;;6.25;2.08;;;;;;;13.58;59.32;101579.09;4992504;28;20162;-67
2022/04/15 08:36:11;;;;;;;4.45;2.05;;;;;;;13.62;59.21;101593.78;4992688;28;20109;-67
2022/04/15 08:39:14;;;;;;;4.78;2.00;;;;;;;13.75;59.23;101583.53;4992449;28;20050;-67
2022/04/15 08:42:19;;;;;;;;;;;;;;;13.81;59.19;101590.28;4992976;28;20053;-67
2022/04/15 08:45:25;;;;;;;6.57;2.20;;;;;;;13.83;57.94;101581.41;4992782;28;19920;-67
2022/04/15 08:48:29;;;;;;;6.40;2.42;;;;;;;13.93;58.43;101587.06;4992551;28;20114;-67
2022/04/15 08:51:35;;;;;;;4.60;1.95;;;;;;;14.00;59.33;101583.19;4992472;28;20049;-67
2022/04/15 08:54:39;;;;;;;6.00;2.22;;;;;;;14.16;59.76;101593.78;4992277;28;20104;-67
2022/04/15 08:57:42;;;;;;;7.40;2.53;;;;;;;13.97;56.75;101588.59;4992407;28;20049;-67
2022/04/15 09:00:45;;;;;;;4.50;1.85;;;;;;;14.10;57.23;101596.72;4992408;28;20045;-67
2022/04/15 09:03:49;;;;;;;7.90;1.90;;;;;;;14.12;57.53;101592.25;4992629;28;20049;-67
2022/04/15 09:06:55;;;;;;;3.75;1.90;;;;;;;14.11;57.02;101590.56;5003202;28;20100;-67
2022/04/15 09:10:01;;;;;;;6.45;2.17;;;;;;;14.34;57.62;101586.75;5006269;28;20133;-67
2022/04/15 09:13:05;;;;;;;4.07;1.58;;;;;;;14.38;57.00;101583.88;5031893;28;20099;-67
2022/04/15 09:16:08;;;;;;;3.72;1.52;;;;;;;14.50;56.76;101587.66;5031662;28;20052;-67
2022/04/15 09:19:13;;;;;;;3.67;1.80;;;;;;;14.59;55.68;101586.38;5033037;28;20099;-67
2022/04/15 09:22:17;;;;;;;3.60;1.60;;;;;;;15.04;57.98;101593.63;5034772;28;20512;-68
2022/04/15 09:25:27;;;;;;;5.45;1.50;;;;;;;15.22;56.28;101599.69;5035327;28;20052;-69
2022/04/15 09:28:34;;;;;;;4.85;1.80;;;;;;;15.24;55.47;101599.59;5033047;28;20124;-69
2022/04/15 09:31:38;;;;;;;4.75;1.83;;;;;;;15.25;57.00;101601.28;5035148;28;20180;-69
2022/04/15 09:35:07;;;;;;;4.32;1.60;;;;;;;15.30;55.04;101583.44;5034071;28;20540;-69
2022/04/15 09:38:11;;;;;;;6.85;1.75;;;;;;;15.42;55.17;101582.75;5034501;28;20071;-69
2022/04/15 09:41:22;;;;;;;7.30;1.75;;;;;;;15.72;55.47;101584.63;5034317;28;20080;-69
2022/04/15 09:44:31;;;;;;;3.47;1.70;;;;;;;15.91;54.04;101598.47;5034674;28;20103;-68
2022/04/15 09:47:34;;;;;;;3.85;1.65;;;;;;;15.95;54.72;101596.50;5034535;28;20060;-69
2022/04/15 09:50:43;;;;;;;6.13;1.80;;;;;;;15.98;53.97;101605.06;5034581;28;20087;-69
2022/04/15 09:53:47;;;;;;;4.10;1.77;;;;;;;16.04;52.80;101588.06;5033762;28;20044;-68
2022/04/15 09:56:57;;;;;;;5.82;1.90;;;;;;;16.17;53.50;101581.09;5034463;28;20098;-69
2022/04/15 10:00:03;;;;;;;7.07;2.75;;;;;;;16.12;52.18;101603.44;5034381;28;20143;-68
2022/04/15 10:03:19;;;;;;;6.95;1.98;;;;;;;16.15;53.31;101598.00;5034064;28;20071;-68
2022/04/15 10:06:25;;;;;;;4.53;1.48;;;;;;;16.19;50.43;101589.78;5034054;28;20053;-67
2022/04/15 10:09:37;;;;;;;5.35;1.88;;;;;;;15.83;50.53;101586.69;5032697;28;20060;-67
2022/04/15 10:12:42;;;;;;;4.50;1.40;;;;;;;15.84;51.24;101583.94;5034678;28;20044;-67
2022/04/15 10:15:50;;;;;;;4.05;1.25;;;;;;;15.67;51.00;101586.69;5034156;28;20200;-67
2022/04/15 10:18:54;;;;;;;6.68;1.25;;;;;;;15.96;51.38;101574.47;5034206;28;20087;-67
2022/04/15 10:21:58;;;;;;;2.80;1.17;;;;;;;16.15;50.06;101580.38;5033999;28;20140;-67
2022/04/15 10:25:02;;;;;;;4.70;1.23;;;;;;;16.25;48.52;101567.47;5034113;28;20048;-67
2022/04/15 10:28:38;;;;;;;5.47;1.48;;;;;;;16.31;49.34;101576.84;5021914;28;20045;-68
2022/04/15 10:31:48;;;;;;;4.45;1.67;;;;;;;16.52;49.01;101581.66;5028915;28;20559;-70
2022/04/15 10:34:52;;;;;;;2.90;1.10;;;;;;;16.55;49.02;101566.56;5033404;28;20405;-69
2022/04/15 10:38:02;;;;;;;4.35;1.10;;;;;;;16.70;49.69;101574.41;5033524;28;20128;-70
2022/04/15 10:41:16;;;;;;;4.68;1.50;;;;;;;16.25;49.39;101572.75;5034002;28;20194;-70
2022/04/15 10:44:33;;;;;;;4.45;1.30;;;;;;;16.21;51.06;101566.81;5034199;28;20095;-70
2022/04/15 10:47:54;;;;;;;5.40;1.52;;;;;;;16.48;50.84;101564.28;5034133;28;20048;-73
2022/04/15 10:51:25;;;;;;;6.20;1.33;;;;;;;16.76;50.41;101562.66;5034029;28;20054;-68
2022/04/15 10:54:35;;;;;;;3.05;1.15;;;;;;;16.80;48.39;101566.78;5033254;28;20048;-68
2022/04/15 10:57:41;;;;;;;4.38;1.65;;;;;;;16.51;49.48;101572.03;5033154;28;20083;-68
2022/04/15 11:01:16;;;;;;;3.55;1.23;;;;;;;16.26;49.73;101570.00;5033364;28;20052;-68
2022/04/15 11:04:25;;;;;;;3.10;1.08;;;;;;;16.69;49.11;101571.88;5032911;28;20519;-68
2022/04/15 11:07:40;;;;;;;5.28;1.27;;;;;;;16.74;48.98;101561.84;5033276;28;20452;-68
2022/04/15 11:10:47;;;;;;;2.70;1.40;;;;;;;16.91;48.67;101553.78;5043270;28;20183;-68
2022/04/15 11:13:50;;;;;;;4.30;1.35;;;;;;;16.77;47.45;101543.22;5033031;28;20121;-68
2022/04/15 11:17:01;;;;;;;4.50;1.40;;;;;;;16.66;48.79;101558.84;5032771;28;20075;-68
2022/04/15 11:20:08;;;;;;;3.33;1.42;;;;;;;16.66;46.90;101564.13;5032676;28;20163;-68
2022/04/15 11:23:12;;;;;;;6.07;1.70;;;;;;;16.66;46.34;101550.94;5031925;28;20082;-68
2022/04/15 11:26:16;;;;;;;3.88;1.38;;;;;;;16.86;45.87;101547.94;5032211;28;20338;-68
2022/04/15 11:29:26;;;;;;;4.60;1.30;;;;;;;17.07;45.15;101548.38;5032137;28;20504;-68
2022/04/15 11:32:30;;;;;;;4.22;1.60;;;;;;;17.38;45.36;101538.47;5043010;28;20051;-68
2022/04/15 11:35:36;;;;;;;7.35;5.15;;;;;;;17.57;47.08;101546.91;5032434;28;20458;-68
2022/04/15 11:38:40;;;;;;;6.60;1.40;;;;;;;17.26;45.37;101548.06;5032548;28;20048;-68
2022/04/15 11:41:49;;;;;;;6.05;1.90;;;;;;;17.31;45.51;101548.59;5031833;28;20466;-68
2022/04/15 11:44:53;;;;;;;4.05;1.83;;;;;;;17.31;43.93;101540.66;5020340;28;20523;-68
2022/04/15 11:48:20;;;;;;;4.50;2.15;;;;;;;17.31;44.37;101543.31;5031181;28;20099;-68
2022/04/15 11:51:27;;;;;;;3.88;1.20;;;;;;;17.44;45.96;101528.34;4680606;28;10000353;-68
2022/04/15 11:54:35;;;;;;;4.30;1.83;;;;;;;17.15;44.37;101532.88;5029015;28;20075;-68
2022/04/15 11:57:39;;;;;;;7.55;2.03;;;;;;;17.44;44.04;101533.63;5028700;28;20127;-69
2022/04/15 12:00:53;;;;;;;5.65;2.03;;;;;;;17.47;45.33;101547.63;5028637;28;20181;-68
2022/04/15 12:04:01;;;;;;;5.80;2.03;;;;;;;17.38;45.67;101528.75;5029668;28;20056;-68
2022/04/15 12:07:15;;;;;;;4.95;2.35;;;;;;;17.96;45.55;101536.47;5028665;28;20176;-68
2022/04/15 12:10:20;;;;;;;5.40;2.20;;;;;;;17.84;44.66;101533.69;5027690;28;20153;-68
2022/04/15 12:13:24;;;;;;;4.22;1.95;;;;;;;17.95;44.98;101542.72;5029361;28;20068;-69
2022/04/15 12:16:30;;;;;;;6.28;1.92;;;;;;;17.72;44.96;101531.84;5027723;28;20145;-69
2022/04/15 12:19:37;;;;;;;5.65;2.03;;;;;;;17.50;45.05;101542.13;5026967;28;20071;-68
2022/04/15 12:22:43;;;;;;;5.35;2.35;;;;;;;17.79;44.94;101541.06;5018530;28;20070;-68
2022/04/15 12:26:06;;;;;;;7.28;3.25;;;;;;;17.62;43.76;101538.69;5007225;28;20061;-68
2022/04/15 12:32:44;;;;;;;6.57;2.80;;;;;;;18.62;43.12;101530.13;5018503;28;20108;-69
2022/04/15 12:36:03;;;;;;;5.80;2.08;;;;;;;18.96;44.08;101538.38;5008843;28;20504;-68
2022/04/15 12:39:07;;;;;;;5.28;2.35;;;;;;;19.27;40.86;101537.00;5008404;28;20133;-68
2022/04/15 12:42:27;;;;;;;5.60;1.98;;;;;;;19.49;41.00;101533.63;5008576;28;20121;-68
2022/04/15 12:45:45;;;;;;;5.00;2.58;;;;;;;19.82;39.95;101535.63;5007940;28;20103;-68
2022/04/15 12:48:50;;;;;;;5.47;2.90;;;;;;;19.56;39.89;101534.88;4996010;28;20052;-68
2022/04/15 12:52:15;;;;;;;7.22;2.88;;;;;;;20.08;39.37;101525.66;5008823;28;20103;-68
2022/04/15 12:55:28;;;;;;;5.60;2.95;;;;;;;20.58;37.92;101523.59;5012251;28;20504;-68
2022/04/15 12:58:32;;;;;;;6.05;3.05;;;;;;;20.80;37.96;101520.06;5012471;28;20068;-68
2022/04/15 13:01:37;;;;;;;6.07;2.85;;;;;;;20.02;38.39;101526.13;5014460;28;20068;-68
2022/04/15 13:04:50;;;;;;;5.97;3.05;;;;;;;19.12;40.09;101528.38;4666717;28;10001543;-68
2022/04/15 13:07:54;;;;;;;10.40;4.90;;;;;;;19.21;41.25;101527.72;5012211;28;20048;-68
2022/04/15 13:11:04;;;;;;;6.43;3.45;;;;;;;20.03;39.52;101511.88;5012545;28;20089;-68
2022/04/15 13:14:11;;;;;;;8.48;3.60;;;;;;;20.74;38.83;101519.69;5015172;28;20184;-69
2022/04/15 13:17:15;;;;;;;7.30;3.72;;;;;;;20.12;38.44;101528.94;5013966;28;20044;-68
2022/04/15 13:20:19;;;;;;;7.50;3.22;;;;;;;20.91;36.79;101513.91;5015435;28;20044;-68
2022/04/15 13:23:22;;;;;;;5.88;3.53;;;;;;;21.54;36.29;101509.66;5014907;28;20106;-68
2022/04/15 13:26:27;;;;;;;6.75;3.25;;;;;;;21.68;35.69;101512.97;5014354;28;20048;-68
2022/04/15 13:29:32;;;;;;;5.15;3.08;;;;;;;21.58;36.24;101508.41;5015014;28;20532;-69
2022/04/15 13:32:35;;;;;;;6.00;3.40;;;;;;;22.11;35.08;101504.00;5013084;28;20124;-69
2022/04/15 13:35:41;;;;;;;6.43;3.80;;;;;;;23.73;31.26;101500.28;5002264;28;20044;-69
2022/04/15 13:43:04;;;;;;;6.60;4.13;;;;;;;27.58;26.21;101491.00;5014642;28;20452;-69
2022/04/15 13:46:07;;;;;;;7.25;3.20;;;;;;;27.54;25.59;101479.75;5013926;28;20135;-69
2022/04/15 13:49:11;;;;;;;4.32;2.55;;;;;;;26.01;26.87;101501.31;5014831;28;20088;-69
2022/04/15 13:59:05;;;;;;;4.20;2.67;;;;;;;30.76;22.29;101480.00;5014285;28;20560;-69
2022/04/15 14:02:08;;;;;;;4.13;2.22;;;;;;;30.92;20.44;101486.22;5013816;28;20053;-70
2022/04/15 14:05:15;;;;;;;4.47;2.33;;;;;;;32.47;19.48;101477.31;5013039;28;20052;-69
2022/04/15 14:08:21;;;;;;;4.35;2.10;;;;;;;28.35;23.65;101494.06;5002271;28;20160;-69
2022/04/15 14:11:25;;;;;;;5.60;2.65;;;;;;;29.88;21.45;101488.94;5014167;28;20465;-70
2022/04/15 14:14:30;;;;;;;5.97;2.97;;;;;;;31.02;21.13;101490.28;5014377;28;20096;-73
2022/04/15 14:17:33;;;;;;;3.55;2.35;;;;;;;31.91;19.81;101484.47;5016158;28;20041;-70
2022/04/15 14:20:37;;;;;;;3.83;2.65;;;;;;;29.35;21.35;101486.16;5035200;28;20048;-71
2022/04/15 14:23:40;;;;;;;4.68;2.13;;;;;;;33.21;18.19;101482.75;5039424;28;20069;-71
2022/04/15 14:26:52;;;;;;;3.30;2.35;;;;;;;34.11;16.91;101479.63;5018560;28;20052;-70
2022/04/15 14:29:57;;;;;;;3.00;2.40;;;;;;;35.68;16.10;101470.00;5019727;28;20075;-71
2022/04/15 14:33:00;;;;;;;3.15;2.28;;;;;;;35.18;16.42;101469.97;5019550;28;20312;-67
2022/04/15 14:36:05;;;;;;;5.05;2.20;;;;;;;32.94;17.88;101478.31;5039533;28;20044;-71
2022/04/15 14:39:09;;;;;;;3.80;2.53;;;;;;;28.94;21.18;101499.03;5022465;28;20180;-71
2022/04/15 14:42:16;;;;;;;5.20;2.80;;;;;;;33.00;17.78;101483.78;5014006;28;20065;-70